Time;durP1;ratioP1;P1;durP2;ratioP2;P2;SDS_P1;SDS_P2;PMS_P1;PMS_P2;Temp;Humidity;BMP_temperature;BMP_pressure;BME280_temperature;BME280_humidity;BME280_pressure;Samples;Min_cycle;Max_cycle;Signal;HPM_P1;HPM_P2
2021/10/12 00:00:32;;;;;;;1.81;1.24;;;;;;;4.89;89.16;100197.72;2308988;69;20294;-79
2021/10/12 00:03:37;;;;;;;1.36;1.25;;;;;;;4.85;89.20;100195.91;2313428;69;20751;-79
2021/10/12 00:06:52;;;;;;;1.83;1.17;;;;;;;4.82;89.28;100201.78;2311892;69;20314;-79
2021/10/12 00:09:54;;;;;;;3.09;1.41;;;;;;;4.84;89.45;100196.69;2311384;69;20323;-79
2021/10/12 00:12:57;;;;;;;2.31;1.13;;;;;;;4.82;89.36;100183.78;2313442;69;20367;-79
2021/10/12 00:16:00;;;;;;;1.54;1.20;;;;;;;4.81;89.47;100192.34;2302150;69;20290;-79
2021/10/12 00:19:04;;;;;;;4.35;1.70;;;;;;;4.81;89.59;100192.34;2307383;69;20298;-79
2021/10/12 00:22:08;;;;;;;2.11;1.75;;;;;;;4.82;89.72;100190.63;2311982;69;20308;-79
2021/10/12 00:25:11;;;;;;;5.55;1.66;;;;;;;4.78;89.82;100194.81;2313118;69;20298;-79
2021/10/12 00:28:14;;;;;;;1.83;1.51;;;;;;;4.82;89.94;100191.50;2312257;69;20740;-79
2021/10/12 00:31:20;;;;;;;3.74;1.48;;;;;;;4.82;90.02;100196.66;2313534;69;20740;-79
2021/10/12 00:34:26;;;;;;;2.97;1.64;;;;;;;4.88;90.34;100172.84;2312898;69;21288;-79
2021/10/12 00:37:30;;;;;;;5.13;1.45;;;;;;;4.92;90.56;100166.06;2311742;69;20314;-79
2021/10/12 00:40:32;;;;;;;1.91;1.30;;;;;;;4.96;90.65;100168.78;2308077;69;20351;-79
2021/10/12 00:43:41;;;;;;;2.38;1.67;;;;;;;4.97;90.50;100154.22;2312897;69;20864;-78
2021/10/12 00:46:45;;;;;;;1.30;1.20;;;;;;;4.99;90.73;100173.13;2308847;69;20290;-79
2021/10/12 00:49:54;;;;;;;2.26;1.58;;;;;;;5.05;90.86;100168.19;2307311;69;20945;-79
2021/10/12 00:52:58;;;;;;;2.54;1.40;;;;;;;5.06;90.65;100178.53;2312482;69;20290;-79
2021/10/12 00:56:01;;;;;;;2.24;1.56;;;;;;;5.04;90.59;100151.88;2312415;69;20160;-79
2021/10/12 00:59:09;;;;;;;2.74;1.50;;;;;;;5.09;90.81;100147.75;2312864;69;20491;-79
2021/10/12 01:02:14;;;;;;;2.97;1.29;;;;;;;5.10;90.77;100136.63;2312650;69;20318;-79
2021/10/12 01:05:18;;;;;;;2.14;1.23;;;;;;;5.13;90.80;100140.97;2312876;69;20748;-79
2021/10/12 01:08:23;;;;;;;2.56;1.20;;;;;;;5.18;90.72;100133.38;2313150;69;20363;-79
2021/10/12 01:11:30;;;;;;;2.28;1.35;;;;;;;5.16;90.55;100141.94;2302396;69;20290;-79
2021/10/12 01:14:38;;;;;;;1.64;1.30;;;;;;;5.14;90.52;100133.28;2314451;69;20324;-79
2021/10/12 01:17:51;;;;;;;1.85;1.19;;;;;;;5.12;90.46;100137.53;2304163;69;20437;-79
2021/10/12 01:20:53;;;;;;;2.58;1.30;;;;;;;5.12;90.60;100126.34;2314690;69;20286;-79
2021/10/12 01:23:57;;;;;;;2.61;1.66;;;;;;;5.13;90.68;100122.97;2312706;69;20587;-79
2021/10/12 01:27:02;;;;;;;3.49;1.33;;;;;;;5.13;90.84;100118.69;2307914;69;20767;-79
2021/10/12 01:30:09;;;;;;;1.55;1.29;;;;;;;5.14;90.98;100104.97;2314683;69;20278;-79
2021/10/12 01:33:19;;;;;;;1.33;1.14;;;;;;;5.15;90.82;100105.84;2308970;69;20732;-79
2021/10/12 01:36:23;;;;;;;3.88;1.27;;;;;;;5.17;90.86;100117.06;2312791;69;20939;-79
2021/10/12 01:39:28;;;;;;;2.13;1.06;;;;;;;5.16;90.89;100110.16;2309461;69;20290;-79
2021/10/12 01:42:31;;;;;;;2.92;1.17;;;;;;;5.18;90.90;100110.22;2313531;69;20822;-79
2021/10/12 01:45:37;;;;;;;3.21;1.10;;;;;;;5.19;90.94;100109.38;2308650;69;20340;-79
2021/10/12 01:48:54;;;;;;;2.41;1.20;;;;;;;5.19;91.02;100102.53;2308016;69;20872;-79
2021/10/12 01:51:57;;;;;;;2.05;1.25;;;;;;;5.20;91.05;100105.97;2312322;69;20752;-79
2021/10/12 01:55:00;;;;;;;2.89;1.17;;;;;;;5.21;91.01;100097.44;2312996;69;20283;-79
2021/10/12 01:58:04;;;;;;;2.10;1.48;;;;;;;5.25;90.90;100099.28;2313164;69;20286;-79
2021/10/12 02:01:07;;;;;;;2.97;1.50;;;;;;;5.27;90.86;100089.88;2306548;69;20367;-79
2021/10/12 02:04:10;;;;;;;1.86;1.45;;;;;;;5.31;90.87;100077.13;2307712;69;20295;-79
2021/10/12 02:07:20;;;;;;;1.79;1.10;;;;;;;5.32;90.94;100072.84;2303486;69;20326;-79
2021/10/12 02:10:23;;;;;;;3.22;1.27;;;;;;;5.31;90.96;100068.53;2313700;69;20337;-79
2021/10/12 02:13:26;;;;;;;3.97;1.39;;;;;;;5.34;91.02;100060.91;2311837;69;20375;-78
2021/10/12 02:16:29;;;;;;;1.76;1.02;;;;;;;5.36;90.98;100059.22;2313418;69;20394;-79
2021/10/12 02:19:32;;;;;;;1.95;1.21;;;;;;;5.35;91.02;100060.94;2312127;69;20294;-79
2021/10/12 02:22:36;;;;;;;3.08;1.00;;;;;;;5.34;90.92;100041.16;2307196;69;20614;-79
2021/10/12 02:25:39;;;;;;;3.65;1.21;;;;;;;5.34;90.83;100037.72;2312038;69;20287;-79
2021/10/12 02:28:42;;;;;;;1.84;1.14;;;;;;;5.30;90.89;100047.06;2311839;69;20397;-79
2021/10/12 02:31:45;;;;;;;1.83;1.30;;;;;;;5.30;90.89;100039.34;2313019;69;20270;-79
2021/10/12 02:34:47;;;;;;;2.14;1.29;;;;;;;5.29;90.92;100042.75;2312526;69;20323;-79
2021/10/12 02:37:50;;;;;;;2.10;1.31;;;;;;;5.28;91.00;100037.56;2313355;69;20359;-79
2021/10/12 02:40:53;;;;;;;1.94;1.36;;;;;;;5.32;91.25;100029.97;2313255;69;20294;-79
2021/10/12 02:43:55;;;;;;;3.26;1.80;;;;;;;5.35;91.46;100017.16;2312181;69;21216;-79
2021/10/12 02:46:58;;;;;;;1.65;1.50;;;;;;;5.40;91.56;100018.19;2314040;69;20375;-79
2021/10/12 02:50:05;;;;;;;1.44;1.31;;;;;;;5.46;91.66;100027.75;2313337;69;21061;-79
2021/10/12 02:53:10;;;;;;;1.86;1.21;;;;;;;5.47;91.61;100027.78;2313525;69;20353;-79
2021/10/12 02:56:13;;;;;;;3.26;1.94;;;;;;;5.50;91.81;100023.56;2313173;69;20306;-79
2021/10/12 02:59:15;;;;;;;2.64;1.20;;;;;;;5.54;91.85;100031.38;2313262;69;20371;-79
2021/10/12 03:02:18;;;;;;;1.51;1.15;;;;;;;5.58;91.89;100034.94;2307184;69;20351;-79
2021/10/12 03:05:21;;;;;;;2.31;1.17;;;;;;;5.63;91.88;100026.50;2311687;69;20362;-79
2021/10/12 03:08:24;;;;;;;2.85;1.34;;;;;;;5.66;91.83;100021.41;2312257;69;20314;-79
2021/10/12 03:11:26;;;;;;;1.96;1.39;;;;;;;5.71;91.86;100008.63;2307556;69;20294;-79
2021/10/12 03:14:29;;;;;;;1.73;1.01;;;;;;;5.74;91.83;99995.81;2311635;69;20290;-79
2021/10/12 03:17:33;;;;;;;2.65;1.40;;;;;;;5.79;91.78;99991.69;2312141;69;20371;-79
2021/10/12 03:20:36;;;;;;;2.15;1.25;;;;;;;5.84;91.55;99984.91;2313323;69;20352;-79
2021/10/12 03:23:40;;;;;;;2.79;1.31;;;;;;;5.88;91.45;99980.69;2312297;69;20356;-79
2021/10/12 03:26:43;;;;;;;3.05;1.50;;;;;;;5.91;91.36;99986.81;2312431;69;20298;-79
2021/10/12 03:29:46;;;;;;;3.85;1.59;;;;;;;5.91;91.49;99975.66;2311423;69;20743;-79
2021/10/12 03:32:49;;;;;;;3.53;1.94;;;;;;;5.90;91.38;99981.63;2313025;69;20278;-79
2021/10/12 03:36:00;;;;;;;3.49;1.56;;;;;;;5.89;91.40;99987.59;2303686;69;20291;-79
2021/10/12 03:39:04;;;;;;;3.90;2.14;;;;;;;5.89;91.43;99996.19;2305546;69;20775;-79
2021/10/12 03:42:07;;;;;;;2.05;1.56;;;;;;;5.90;91.43;99994.53;2305180;69;20291;-79
2021/10/12 03:45:10;;;;;;;1.96;1.49;;;;;;;5.90;91.43;99989.38;2305661;69;20303;-79
2021/10/12 03:48:13;;;;;;;3.97;1.45;;;;;;;5.88;91.39;99989.31;2305926;69;20360;-79
2021/10/12 03:51:16;;;;;;;4.39;1.45;;;;;;;5.90;91.54;99994.53;2305652;69;20290;-79
2021/10/12 03:54:19;;;;;;;2.22;1.40;;;;;;;5.94;91.61;99997.25;2307088;69;20288;-79
2021/10/12 03:57:22;;;;;;;3.15;1.31;;;;;;;5.94;91.59;99992.09;2305139;69;20313;-79
2021/10/12 04:00:25;;;;;;;1.76;1.15;;;;;;;5.94;91.55;99993.78;2305438;69;20337;-79
2021/10/12 04:03:27;;;;;;;3.50;1.86;;;;;;;5.96;91.63;99989.53;2305113;69;20324;-78
2021/10/12 04:06:32;;;;;;;3.85;1.30;;;;;;;5.96;91.60;99987.84;2304903;69;20317;-79
2021/10/12 04:09:35;;;;;;;2.28;1.27;;;;;;;6.00;91.69;99984.47;2306089;69;20345;-79
2021/10/12 04:12:38;;;;;;;1.89;1.20;;;;;;;6.03;91.74;99981.09;2309646;69;20317;-79
2021/10/12 04:15:41;;;;;;;1.51;1.39;;;;;;;6.04;91.76;99982.84;2304907;69;20295;-79
2021/10/12 04:18:43;;;;;;;3.46;1.44;;;;;;;6.05;91.80;99977.72;2306201;69;20349;-79
2021/10/12 04:21:46;;;;;;;3.51;1.39;;;;;;;6.06;91.83;99987.19;2298934;69;20305;-79
2021/10/12 04:24:49;;;;;;;2.69;1.51;;;;;;;6.11;91.80;99983.88;2307227;69;20325;-79
2021/10/12 04:27:55;;;;;;;3.38;1.39;;;;;;;6.14;91.58;99984.81;2299963;69;20306;-79
2021/10/12 04:30:57;;;;;;;2.41;1.34;;;;;;;6.11;91.38;99986.44;2305325;69;20315;-79
2021/10/12 04:34:00;;;;;;;3.53;1.46;;;;;;;6.11;91.38;99984.75;2308295;69;20326;-79
2021/10/12 04:37:03;;;;;;;1.81;1.30;;;;;;;6.09;91.38;99973.50;2311218;69;20359;-79
2021/10/12 04:40:07;;;;;;;2.19;1.31;;;;;;;6.09;91.48;99976.06;2313681;69;20591;-79
2021/10/12 04:43:12;;;;;;;4.54;1.67;;;;;;;6.07;91.53;99981.19;2312502;69;20294;-79
2021/10/12 04:46:21;;;;;;;2.39;1.33;;;;;;;6.09;91.72;99986.38;2312374;69;21096;-79
2021/10/12 04:49:24;;;;;;;3.53;1.25;;;;;;;6.11;91.83;99979.59;2312866;69;20290;-79
2021/10/12 04:52:27;;;;;;;3.03;1.56;;;;;;;6.14;91.76;99977.06;2311104;69;20359;-78
2021/10/12 04:55:30;;;;;;;2.80;1.75;;;;;;;6.17;91.84;99968.53;2310946;69;20359;-79
2021/10/12 04:58:33;;;;;;;1.81;1.48;;;;;;;6.19;91.62;99965.16;2306375;69;20294;-79
2021/10/12 05:01:35;;;;;;;3.24;1.71;;;;;;;6.21;91.53;99965.19;2311798;69;20312;-79
2021/10/12 05:04:38;;;;;;;4.41;1.99;;;;;;;6.20;91.54;99964.31;2315138;69;20316;-79
2021/10/12 05:07:41;;;;;;;4.04;1.88;;;;;;;6.20;91.57;99948.84;2312323;69;20963;-79
2021/10/12 05:10:43;;;;;;;4.97;2.04;;;;;;;6.20;91.50;99941.09;2308301;69;20290;-79
2021/10/12 05:13:49;;;;;;;3.80;2.21;;;;;;;6.20;91.44;99943.69;2307446;69;20282;-79
2021/10/12 05:16:55;;;;;;;4.47;2.19;;;;;;;6.19;91.39;99941.94;2312157;69;20338;-79
2021/10/12 05:19:57;;;;;;;1.79;1.67;;;;;;;6.19;91.41;99939.38;2311524;69;20294;-81
2021/10/12 05:23:00;;;;;;;4.07;2.59;;;;;;;6.23;91.56;99955.75;2312242;69;20347;-81
2021/10/12 05:26:05;;;;;;;5.14;2.16;;;;;;;6.27;91.55;99960.16;2310874;69;20298;-81
2021/10/12 05:29:12;;;;;;;3.19;1.95;;;;;;;6.29;91.53;99956.78;2308467;69;20388;-81
2021/10/12 05:32:15;;;;;;;4.06;1.98;;;;;;;6.30;91.56;99955.94;2312360;69;20323;-81
2021/10/12 05:35:19;;;;;;;4.59;1.85;;;;;;;6.30;91.63;99945.63;2306440;69;20302;-81
2021/10/12 05:38:23;;;;;;;3.99;2.19;;;;;;;6.32;91.74;99945.66;2312224;69;20920;-81
2021/10/12 05:41:26;;;;;;;3.15;1.86;;;;;;;6.33;91.73;99949.97;2313518;69;20334;-81
2021/10/12 05:44:30;;;;;;;2.51;1.54;;;;;;;6.36;91.67;99945.75;2305996;69;20311;-81
2021/10/12 05:47:35;;;;;;;1.91;1.54;;;;;;;6.39;91.59;99950.09;2317452;69;20302;-81
2021/10/12 05:50:43;;;;;;;2.75;1.44;;;;;;;6.36;91.44;99943.19;2311661;69;20343;-81
2021/10/12 05:53:50;;;;;;;4.19;1.54;;;;;;;6.32;91.57;99943.97;2310915;69;20290;-81
2021/10/12 05:56:58;;;;;;;4.59;1.50;;;;;;;6.32;91.85;99949.13;2311898;69;20218;-81
2021/10/12 06:00:04;;;;;;;2.39;1.66;;;;;;;6.33;92.00;99950.84;2305922;69;20321;-81
2021/10/12 06:03:06;;;;;;;2.45;1.51;;;;;;;6.38;92.04;99952.66;2309871;69;20599;-81
2021/10/12 06:06:12;;;;;;;2.78;1.80;;;;;;;6.43;91.93;99964.81;2312507;69;20654;-82
2021/10/12 06:09:15;;;;;;;2.69;1.95;;;;;;;6.47;91.77;99964.06;2310542;69;20310;-81
2021/10/12 06:13:09;;;;;;;5.24;2.15;;;;;;;6.54;91.75;99957.31;2309559;69;20286;-82
2021/10/12 06:16:57;;;;;;;4.70;2.20;;;;;;;6.57;91.67;99950.50;2313443;69;20303;-82
2021/10/12 06:20:16;;;;;;;3.69;2.00;;;;;;;6.58;91.63;99954.81;2311805;69;20426;-81
2021/10/12 06:23:20;;;;;;;;;;;;;;;6.65;91.58;99953.25;2315204;69;20364;-82
2021/10/12 06:44:32;;;;;;;5.94;1.94;;;;;;;7.20;91.16;99962.06;2320923;69;20343;-81
2021/10/12 06:52:08;;;;;;;5.29;1.83;;;;;;;7.19;91.39;99950.84;2316814;69;20410;-80
2021/10/12 06:55:14;;;;;;;4.38;2.15;;;;;;;7.27;91.57;99941.50;2312993;69;21048;-80
2021/10/12 06:58:17;;;;;;;2.06;1.56;;;;;;;7.35;91.49;99941.63;2314513;69;20287;-80
2021/10/12 07:01:20;;;;;;;3.86;2.24;;;;;;;7.41;91.54;99949.50;2312152;69;20319;-80
2021/10/12 07:04:23;;;;;;;5.22;2.46;;;;;;;7.50;91.51;99941.03;2313093;69;20480;-80
2021/10/12 07:07:26;;;;;;;6.34;2.42;;;;;;;7.62;91.44;99941.25;2312880;69;20308;-80
2021/10/12 07:10:29;;;;;;;6.14;2.72;;;;;;;7.72;91.42;99944.81;2310082;69;20318;-80
2021/10/12 07:13:34;;;;;;;9.63;3.04;;;;;;;7.80;91.38;99938.94;2313710;69;20381;-79
2021/10/12 07:16:38;;;;;;;9.45;3.14;;;;;;;7.92;91.33;99937.41;2317873;69;20376;-80
2021/10/12 07:19:41;;;;;;;10.24;3.15;;;;;;;8.00;91.17;99940.97;2310821;69;20922;-80
2021/10/12 07:22:44;;;;;;;8.00;2.85;;;;;;;8.10;90.95;99935.09;2313123;69;20833;-80
2021/10/12 07:25:48;;;;;;;9.70;3.01;;;;;;;8.18;90.72;99929.16;2317138;69;20785;-80
2021/10/12 07:28:51;;;;;;;6.99;2.75;;;;;;;8.28;90.35;99924.13;2314309;69;20345;-80
2021/10/12 07:31:54;;;;;;;6.50;3.13;;;;;;;8.36;90.19;99922.53;2309623;69;20722;-78
2021/10/12 07:34:56;;;;;;;8.79;2.96;;;;;;;8.45;89.95;99915.75;2308485;69;20380;-80
2021/10/12 07:38:01;;;;;;;8.00;3.15;;;;;;;8.51;89.88;99916.69;2310991;69;20363;-80
2021/10/12 07:41:04;;;;;;;8.79;3.29;;;;;;;8.59;89.63;99917.63;2311033;69;20278;-80
2021/10/12 07:44:08;;;;;;;8.05;3.36;;;;;;;8.61;89.44;99910.75;2311202;69;20282;-80
2021/10/12 07:47:11;;;;;;;7.25;3.39;;;;;;;8.64;89.57;99910.81;2312162;69;20387;-80
2021/10/12 07:50:15;;;;;;;9.04;2.91;;;;;;;8.72;89.46;99916.94;2311629;69;20833;-80
2021/10/12 07:53:18;;;;;;;8.25;2.88;;;;;;;8.89;89.24;99911.94;2307180;69;21107;-80
2021/10/12 07:56:36;;;;;;;9.41;3.29;;;;;;;9.33;88.96;99902.84;2314072;69;20402;-80
2021/10/12 07:59:39;;;;;;;8.17;3.06;;;;;;;9.89;87.61;99904.19;2309610;69;20351;-81
2021/10/12 08:02:41;;;;;;;8.88;3.19;;;;;;;10.47;86.22;99897.59;2314409;69;20152;-80
2021/10/12 08:05:44;;;;;;;9.44;3.31;;;;;;;10.97;84.52;99899.50;2313844;69;20189;-81
2021/10/12 08:08:47;;;;;;;7.43;3.14;;;;;;;11.41;82.83;99903.88;2314859;69;20267;-81
2021/10/12 08:11:52;;;;;;;6.26;2.53;;;;;;;11.83;81.18;99895.19;2313182;69;20173;-81
2021/10/12 08:15:00;;;;;;;6.01;2.49;;;;;;;12.27;80.07;99894.25;2313293;69;20687;-81
2021/10/12 08:18:20;;;;;;;8.30;2.78;;;;;;;12.69;78.64;99895.81;2320598;69;20251;-80
2021/10/12 08:22:16;;;;;;;4.44;1.81;;;;;;;12.89;76.82;99893.94;2314538;69;20610;-81
2021/10/12 08:25:47;;;;;;;6.90;2.36;;;;;;;12.85;76.04;99888.78;2314381;69;20278;-81
2021/10/12 08:28:58;;;;;;;7.78;2.58;;;;;;;12.98;75.80;99880.88;2302749;69;20318;-81
2021/10/12 08:33:18;;;;;;;7.28;2.09;;;;;;;13.14;75.65;99879.03;2311923;69;20156;-81
2021/10/12 08:36:42;;;;;;;6.74;1.83;;;;;;;13.50;75.23;99877.94;2313803;69;20177;-80
2021/10/12 08:39:45;;;;;;;7.15;1.65;;;;;;;13.46;73.99;99883.16;2311528;69;20152;-80
2021/10/12 08:42:49;;;;;;;5.55;2.04;;;;;;;13.21;72.77;99893.78;2310384;69;20272;-80
2021/10/12 08:45:52;;;;;;;5.60;1.66;;;;;;;13.04;73.19;99879.97;2307904;69;20819;-80
2021/10/12 08:48:56;;;;;;;5.59;1.66;;;;;;;12.92;73.84;99880.03;2308787;69;20606;-80
2021/10/12 08:51:59;;;;;;;4.91;2.25;;;;;;;12.86;74.42;99878.34;2308484;69;20149;-80
2021/10/12 08:55:02;;;;;;;5.55;2.05;;;;;;;12.83;74.60;99880.09;2307637;69;20292;-80
2021/10/12 08:58:05;;;;;;;4.40;1.73;;;;;;;12.78;74.30;99880.13;2308762;69;20718;-79
2021/10/12 09:01:10;;;;;;;4.32;1.50;;;;;;;12.79;74.63;99879.25;2311247;69;20145;-81
2021/10/12 09:04:22;;;;;;;5.84;1.70;;;;;;;12.85;75.11;99874.00;2312576;69;20156;-81
2021/10/12 09:07:56;;;;;;;9.50;1.74;;;;;;;12.95;74.54;99870.47;2315599;69;20978;-80
2021/10/12 09:11:38;;;;;;;4.95;1.48;;;;;;;12.97;73.69;99865.25;2310389;69;20325;-80
2021/10/12 09:14:59;;;;;;;8.66;1.54;;;;;;;13.09;73.13;99859.06;2313126;69;20761;-80
2021/10/12 09:18:01;;;;;;;7.18;1.45;;;;;;;13.21;72.37;99849.47;2309338;69;20284;-80
2021/10/12 09:21:13;;;;;;;6.30;1.45;;;;;;;13.37;71.04;99852.81;2303814;69;20145;-80
2021/10/12 09:24:18;;;;;;;5.57;1.46;;;;;;;13.49;70.70;99841.41;2308570;69;20160;-80
2021/10/12 09:27:25;;;;;;;9.15;1.69;;;;;;;13.67;70.64;99840.38;2308275;69;20228;-80
2021/10/12 09:30:33;;;;;;;4.53;1.23;;;;;;;13.94;68.53;99834.84;2309744;69;20537;-80
2021/10/12 09:33:46;;;;;;;5.12;1.33;;;;;;;14.23;67.60;99834.53;2309940;69;20153;-80
2021/10/12 09:36:50;;;;;;;3.71;1.00;;;;;;;14.49;66.78;99836.84;2303420;69;20477;-80
2021/10/12 09:39:54;;;;;;;8.77;1.00;;;;;;;14.58;65.83;99828.03;2310107;69;20185;-80
2021/10/12 09:42:57;;;;;;;6.11;1.15;;;;;;;14.62;65.27;99824.47;2309013;69;20186;-80
2021/10/12 09:46:00;;;;;;;4.47;1.00;;;;;;;14.79;64.29;99819.88;2304672;69;20175;-80
2021/10/12 09:49:15;;;;;;;5.64;1.20;;;;;;;14.88;63.11;99817.09;2308615;69;21174;-80
2021/10/12 09:52:20;;;;;;;7.46;1.52;;;;;;;14.95;63.85;99817.91;2308052;69;20294;-80
2021/10/12 09:55:34;;;;;;;2.86;1.23;;;;;;;14.83;62.94;99821.56;2308549;69;20261;-79
2021/10/12 09:58:37;;;;;;;7.04;1.40;;;;;;;14.62;62.94;99822.72;2309191;69;20234;-79
2021/10/12 10:01:43;;;;;;;5.64;1.39;;;;;;;14.40;63.65;99816.91;2306213;69;20607;-79
2021/10/12 10:04:46;;;;;;;6.28;1.10;;;;;;;14.14;63.93;99811.13;2308420;69;20218;-79
2021/10/12 10:07:52;;;;;;;5.01;1.34;;;;;;;14.13;65.06;99812.00;2306982;69;20153;-79
2021/10/12 10:11:15;;;;;;;4.84;1.20;;;;;;;14.29;64.84;99804.84;2307189;69;20298;-80
2021/10/12 10:14:19;;;;;;;4.34;0.93;;;;;;;14.28;63.99;99804.00;2307636;69;20148;-80
2021/10/12 10:17:27;;;;;;;4.88;1.10;;;;;;;14.26;64.13;99804.91;2307572;69;20190;-79
2021/10/12 10:20:29;;;;;;;6.06;1.26;;;;;;;14.23;63.62;99804.94;2306160;69;20186;-79
2021/10/12 10:23:54;;;;;;;5.78;1.23;;;;;;;14.32;64.24;99795.22;2306787;69;20165;-78
2021/10/12 10:26:57;;;;;;;7.47;1.29;;;;;;;14.33;63.03;99793.47;2307039;69;20181;-78
2021/10/12 10:30:26;;;;;;;3.83;1.11;;;;;;;14.31;63.56;99790.03;2306995;69;20210;-78
2021/10/12 10:33:34;;;;;;;4.64;0.95;;;;;;;14.23;63.57;99797.97;2305988;69;20180;-78
2021/10/12 10:36:37;;;;;;;3.26;1.14;;;;;;;14.23;63.77;99784.91;2306772;69;20161;-78
2021/10/12 10:39:39;;;;;;;5.99;0.99;;;;;;;14.28;64.00;99783.09;2306811;69;20190;-78
2021/10/12 10:42:42;;;;;;;4.18;1.04;;;;;;;14.37;64.02;99782.13;2306219;69;20191;-78
2021/10/12 10:45:47;;;;;;;3.33;0.85;;;;;;;14.42;63.25;99777.69;2306851;69;20169;-78
2021/10/12 10:48:50;;;;;;;5.29;1.10;;;;;;;14.48;62.47;99767.16;2306551;69;20145;-78
2021/10/12 10:51:56;;;;;;;4.90;1.25;;;;;;;14.66;63.09;99768.66;2305998;69;20286;-78
2021/10/12 10:55:00;;;;;;;4.68;1.00;;;;;;;14.81;62.00;99765.81;2299900;69;20222;-78
2021/10/12 10:58:18;;;;;;;2.89;0.88;;;;;;;14.87;62.27;99760.47;2305974;69;20194;-78
2021/10/12 11:01:34;;;;;;;4.40;1.20;;;;;;;14.87;61.70;99759.63;2305418;69;20226;-79
2021/10/12 11:04:42;;;;;;;2.99;0.90;;;;;;;14.77;61.53;99764.13;2305785;69;20461;-78
2021/10/12 11:07:44;;;;;;;3.60;1.10;;;;;;;14.55;61.12;99755.78;2311734;69;20193;-78
2021/10/12 11:10:53;;;;;;;8.69;1.20;;;;;;;14.39;61.67;99756.84;2305013;69;20180;-79
2021/10/12 11:13:57;;;;;;;4.26;1.00;;;;;;;14.21;62.43;99755.34;2305204;69;20246;-78
2021/10/12 11:17:09;;;;;;;5.11;1.36;;;;;;;14.10;63.11;99750.25;2305168;69;20193;-78
2021/10/12 11:20:14;;;;;;;7.06;1.09;;;;;;;14.13;64.10;99741.50;2306256;69;20194;-79
2021/10/12 11:23:54;;;;;;;3.51;0.90;;;;;;;14.16;64.90;99744.06;2304793;69;20196;-79
2021/10/12 11:26:57;;;;;;;5.29;0.93;;;;;;;14.11;64.16;99741.53;2302594;69;20234;-78
2021/10/12 11:30:08;;;;;;;7.20;1.09;;;;;;;14.04;64.02;99729.44;2300432;69;20316;-78
2021/10/12 11:33:11;;;;;;;3.95;1.02;;;;;;;14.07;64.68;99736.38;2306032;69;20177;-78
2021/10/12 11:36:18;;;;;;;4.64;1.13;;;;;;;14.06;64.34;99735.50;2306700;69;20180;-79
2021/10/12 11:39:20;;;;;;;4.99;1.35;;;;;;;13.94;64.35;99722.59;2305939;69;20230;-78
2021/10/12 11:42:23;;;;;;;3.51;1.04;;;;;;;13.90;64.57;99719.16;2304019;69;20168;-78
2021/10/12 11:45:27;;;;;;;2.74;0.90;;;;;;;13.90;64.93;99713.94;2302155;69;20188;-78
2021/10/12 11:48:38;;;;;;;4.39;1.44;;;;;;;13.95;65.42;99720.84;2306125;69;20680;-78
2021/10/12 11:52:07;;;;;;;4.40;1.24;;;;;;;13.86;65.28;99707.03;2306139;69;20909;-78
2021/10/12 11:55:35;;;;;;;4.21;1.19;;;;;;;13.78;66.09;99708.00;2305317;69;20185;-78
2021/10/12 11:58:40;;;;;;;5.07;1.30;;;;;;;13.68;66.58;99707.28;2305474;69;20165;-77
2021/10/12 12:01:44;;;;;;;3.20;1.04;;;;;;;13.57;66.58;99699.56;2302965;69;20206;-76
2021/10/12 12:04:47;;;;;;;5.71;1.31;;;;;;;13.47;67.04;99699.69;2303879;69;20574;-77
2021/10/12 12:07:50;;;;;;;3.33;1.10;;;;;;;13.24;67.57;99698.19;2304755;69;20664;-76
2021/10/12 12:10:54;;;;;;;4.70;1.20;;;;;;;13.14;68.37;99699.13;2305494;69;20225;-77
2021/10/12 12:13:59;;;;;;;4.93;1.56;;;;;;;13.06;69.43;99700.06;2304646;69;20161;-77
2021/10/12 12:17:08;;;;;;;2.72;1.00;;;;;;;13.05;70.25;99703.56;2304254;69;20218;-78
2021/10/12 12:20:12;;;;;;;2.79;1.15;;;;;;;12.93;71.33;99688.91;2305436;69;20157;-80
2021/10/12 12:23:42;;;;;;;6.53;1.40;;;;;;;12.76;72.94;99693.41;2308021;69;20752;-80
2021/10/12 12:26:45;;;;;;;;;;;;;;;12.65;73.85;99686.53;2305342;69;20160;-79
2021/10/12 12:29:59;;;;;;;7.72;1.80;;;;;;;12.58;74.42;99687.47;2307644;69;20129;-79
2021/10/12 12:33:02;;;;;;;3.26;1.36;;;;;;;12.44;75.47;99680.63;2304828;69;20182;-79
2021/10/12 12:36:05;;;;;;;6.99;1.40;;;;;;;12.29;76.61;99689.41;2305299;69;20594;-78
2021/10/12 12:39:09;;;;;;;4.15;1.38;;;;;;;12.26;77.45;99681.63;2305874;69;20156;-79
2021/10/12 12:42:32;;;;;;;3.33;1.35;;;;;;;12.25;78.01;99679.91;2306469;69;21167;-79
2021/10/12 12:45:35;;;;;;;5.76;1.48;;;;;;;12.19;78.87;99685.13;2305120;69;20672;-79
2021/10/12 12:48:38;;;;;;;3.40;1.06;;;;;;;12.09;78.89;99684.31;2304956;69;20161;-79
2021/10/12 12:51:46;;;;;;;7.09;1.59;;;;;;;11.95;79.36;99676.59;2306545;69;20189;-79
2021/10/12 12:54:51;;;;;;;5.72;1.23;;;;;;;11.92;80.02;99676.63;2306441;69;20179;-79
2021/10/12 12:57:55;;;;;;;4.63;1.33;;;;;;;11.86;80.36;99673.19;2299129;69;20161;-78
2021/10/12 13:00:59;;;;;;;3.47;0.91;;;;;;;11.80;80.62;99667.13;2303201;69;20902;-78
2021/10/12 13:04:04;;;;;;;5.28;1.11;;;;;;;11.75;80.95;99660.19;2304430;69;21036;-78
2021/10/12 13:07:07;;;;;;;2.71;1.10;;;;;;;11.75;81.79;99657.59;2294095;69;20226;-78
2021/10/12 13:10:09;;;;;;;5.91;1.24;;;;;;;11.76;82.21;99648.91;2305099;69;20189;-78
2021/10/12 13:13:12;;;;;;;3.24;1.10;;;;;;;11.84;82.66;99647.16;2299415;69;20249;-78
2021/10/12 13:16:14;;;;;;;3.14;0.94;;;;;;;11.86;82.54;99645.44;2305268;69;20153;-78
2021/10/12 13:19:17;;;;;;;3.96;1.17;;;;;;;11.84;82.33;99636.75;2304929;69;20279;-78
2021/10/12 13:22:21;;;;;;;5.56;1.74;;;;;;;11.84;82.79;99641.94;2305674;69;20292;-78
2021/10/12 13:25:24;;;;;;;4.36;1.40;;;;;;;11.86;82.27;99636.75;2306252;69;20946;-79
2021/10/12 13:28:26;;;;;;;6.49;1.40;;;;;;;11.84;81.74;99638.47;2308659;69;20229;-80
2021/10/12 13:31:35;;;;;;;6.19;1.24;;;;;;;11.83;81.99;99645.41;2310434;69;20717;-81
2021/10/12 13:34:53;;;;;;;4.51;1.52;;;;;;;11.84;82.15;99651.50;2303790;69;20165;-81
2021/10/12 13:37:56;;;;;;;5.07;1.42;;;;;;;11.82;82.31;99643.69;2312828;69;20255;-81
2021/10/12 13:41:00;;;;;;;6.51;1.39;;;;;;;11.79;82.57;99639.38;2313014;69;20173;-81
2021/10/12 13:44:03;;;;;;;8.65;2.20;;;;;;;11.75;82.80;99640.25;2310178;69;20193;-80
2021/10/12 13:47:08;;;;;;;3.99;1.56;;;;;;;11.76;82.91;99641.09;2309014;69;20187;-80
2021/10/12 13:50:15;;;;;;;4.47;2.04;;;;;;;11.71;83.55;99641.13;2311924;69;20145;-82
2021/10/12 13:59:51;;;;;;;4.93;1.61;;;;;;;11.56;83.60;99629.94;2319440;69;20110;-83
2021/10/12 14:02:56;;;;;;;6.16;1.85;;;;;;;11.56;83.99;99632.53;2310992;69;20144;-81
2021/10/12 14:06:04;;;;;;;8.91;2.11;;;;;;;11.48;84.75;99627.34;2323247;69;20171;-81
2021/10/12 14:09:08;;;;;;;6.03;2.24;;;;;;;11.48;85.41;99633.41;2326594;69;20152;-80
2021/10/12 14:12:10;;;;;;;5.43;2.46;;;;;;;11.46;85.45;99627.34;2319560;69;20175;-81
2021/10/12 14:15:14;;;;;;;4.43;2.53;;;;;;;11.50;85.59;99617.84;2322346;69;20192;-80
2021/10/12 14:18:19;;;;;;;6.84;2.72;;;;;;;11.50;85.64;99613.50;2330457;68;20179;-80
2021/10/12 14:21:22;;;;;;;9.25;2.86;;;;;;;11.50;85.97;99617.84;2323211;69;20645;-80
2021/10/12 14:24:25;;;;;;;7.01;2.61;;;;;;;11.49;86.52;99609.16;2325748;68;20163;-80
2021/10/12 14:27:28;;;;;;;5.94;2.84;;;;;;;11.46;86.57;99603.97;2308297;69;20173;-80
2021/10/12 14:30:31;;;;;;;6.64;2.86;;;;;;;11.42;86.42;99606.59;2305928;69;21090;-79
2021/10/12 14:33:33;;;;;;;9.93;3.34;;;;;;;11.38;86.45;99604.88;2321248;68;21147;-79
2021/10/12 14:36:36;;;;;;;6.00;3.29;;;;;;;11.36;86.85;99604.88;2319728;69;20175;-79
2021/10/12 14:39:39;;;;;;;7.22;3.21;;;;;;;11.37;86.99;99605.75;2321397;69;20207;-79
2021/10/12 14:42:42;;;;;;;7.79;3.41;;;;;;;11.35;87.11;99604.91;2320565;69;20171;-79
2021/10/12 14:45:45;;;;;;;5.74;3.19;;;;;;;11.39;87.04;99604.88;2320619;68;20168;-79
2021/10/12 14:48:47;;;;;;;6.65;3.50;;;;;;;11.42;87.29;99599.66;2320266;69;20171;-79
2021/10/12 14:51:50;;;;;;;5.79;3.09;;;;;;;11.49;87.44;99598.78;2321108;69;20199;-79
2021/10/12 14:54:52;;;;;;;6.21;3.33;;;;;;;11.51;87.66;99596.16;2321533;68;20179;-79
2021/10/12 14:57:55;;;;;;;5.34;3.05;;;;;;;11.55;87.73;99587.47;2320562;69;20232;-79
2021/10/12 15:00:58;;;;;;;5.86;3.94;;;;;;;11.61;87.89;99586.56;2320695;69;20290;-79
2021/10/12 15:04:01;;;;;;;7.45;3.40;;;;;;;11.67;88.00;99573.50;2321324;68;20620;-79
2021/10/12 15:07:03;;;;;;;5.24;3.21;;;;;;;11.74;87.96;99581.28;2321774;69;20274;-79
2021/10/12 15:10:08;;;;;;;7.49;3.97;;;;;;;11.80;87.29;99568.25;2322551;69;20160;-80